Time;durP1;ratioP1;P1;durP2;ratioP2;P2;SDS_P1;SDS_P2;PMS_P1;PMS_P2;Temp;Humidity;BMP_temperature;BMP_pressure;BME280_temperature;BME280_humidity;BME280_pressure;Samples;Min_cycle;Max_cycle;Signal;HPM_P1;HPM_P2
2023/10/03 00:00:39;;;;;;;26.53;14.53;;;22.10;98.00;;;;;;4942617;28;20845;-72
2023/10/03 00:03:08;;;;;;;25.13;13.80;;;22.00;97.90;;;;;;4941457;28;20229;-72
2023/10/03 00:05:38;;;;;;;21.47;13.63;;;22.10;98.00;;;;;;4942834;29;20481;-71
2023/10/03 00:08:06;;;;;;;23.60;14.23;;;22.00;98.00;;;;;;4925609;29;20435;-72
2023/10/03 00:10:38;;;;;;;24.20;14.30;;;22.10;98.00;;;;;;4909349;29;20468;-72
2023/10/03 00:13:11;;;;;;;22.80;14.00;;;22.00;98.00;;;;;;4925686;29;21269;-72
2023/10/03 00:15:43;;;;;;;20.57;13.33;;;22.00;98.00;;;;;;4948368;28;20461;-72
2023/10/03 00:18:13;;;;;;;21.60;13.00;;;22.00;98.00;;;;;;4940678;29;20517;-72
2023/10/03 00:20:42;;;;;;;23.50;14.47;;;22.00;98.00;;;;;;4942671;29;20433;-72
2023/10/03 00:23:10;;;;;;;23.47;14.73;;;22.00;98.00;;;;;;4933382;29;20938;-72
2023/10/03 00:25:38;;;;;;;24.77;14.43;;;22.00;98.00;;;;;;4909299;29;20460;-72
2023/10/03 00:28:06;;;;;;;21.97;13.67;;;22.00;97.90;;;;;;4942908;29;21077;-72
2023/10/03 00:30:39;;;;;;;23.97;14.50;;;22.00;98.00;;;;;;4940658;28;20436;-72
2023/10/03 00:33:12;;;;;;;19.07;12.60;;;22.00;98.00;;;;;;4903892;29;20450;-72
2023/10/03 00:35:45;;;;;;;22.50;13.87;;;22.00;97.90;;;;;;4925783;29;20469;-72
2023/10/03 00:38:13;;;;;;;22.40;13.90;;;21.90;97.90;;;;;;4921699;28;20890;-72
2023/10/03 00:40:49;;;;;;;22.50;12.93;;;21.90;97.90;;;;;;4929239;28;20878;-72
2023/10/03 00:43:15;;;;;;;23.97;13.83;;;22.00;97.90;;;;;;4935993;28;20436;-72
2023/10/03 00:45:42;;;;;;;23.20;14.50;;;21.90;97.90;;;;;;4945129;28;21315;-72
2023/10/03 00:48:11;;;;;;;21.80;14.67;;;22.00;97.90;;;;;;4919761;28;20593;-72
2023/10/03 00:50:42;;;;;;;23.70;14.13;;;21.90;97.90;;;;;;4901240;29;20565;-72
2023/10/03 00:53:13;;;;;;;22.40;14.47;;;21.90;97.90;;;;;;4919835;28;20451;-72
2023/10/03 00:55:47;;;;;;;22.30;14.17;;;21.90;97.90;;;;;;4929190;29;20459;-72
2023/10/03 01:00:49;;;;;;;22.50;14.10;;;22.00;98.00;;;;;;4940561;29;20473;-72
2023/10/03 01:03:27;;;;;;;23.63;14.63;;;21.90;98.00;;;;;;4908991;29;20461;-69
2023/10/03 01:06:04;;;;;;;23.37;14.47;;;21.90;97.90;;;;;;4927951;28;20484;-69
2023/10/03 01:08:31;;;;;;;21.40;14.10;;;21.90;97.90;;;;;;4937822;29;20463;-69
2023/10/03 01:11:02;;;;;;;23.17;15.50;;;21.90;97.90;;;;;;4932978;28;20441;-69
2023/10/03 01:13:29;;;;;;;25.20;13.80;;;21.90;97.90;;;;;;4925313;29;20455;-69
2023/10/03 01:15:55;;;;;;;20.13;13.13;;;21.90;98.00;;;;;;4925553;29;20544;-69
2023/10/03 01:18:26;;;;;;;22.70;13.70;;;21.90;97.90;;;;;;4899992;28;21279;-69
2023/10/03 01:21:00;;;;;;;23.57;15.17;;;21.90;97.90;;;;;;4927806;29;20435;-69
2023/10/03 01:23:33;;;;;;;28.53;14.27;;;21.90;97.90;;;;;;4940516;28;20931;-69
2023/10/03 01:25:59;;;;;;;24.70;15.27;;;21.80;97.90;;;;;;4935383;28;21290;-70
2023/10/03 01:28:26;;;;;;;19.53;12.50;;;21.90;98.00;;;;;;4939156;29;20426;-69
2023/10/03 01:30:52;;;;;;;24.57;14.50;;;21.90;97.90;;;;;;4952457;28;20861;-69
2023/10/03 01:33:22;;;;;;;20.87;13.57;;;21.80;97.90;;;;;;4930489;29;20430;-68
2023/10/03 01:35:48;;;;;;;22.13;14.40;;;21.90;97.90;;;;;;4916394;29;21011;-68
2023/10/03 01:38:17;;;;;;;25.30;14.60;;;21.80;97.90;;;;;;4923801;29;20477;-69
2023/10/03 01:40:43;;;;;;;22.60;14.93;;;21.90;97.90;;;;;;4913033;29;20451;-68
2023/10/03 01:43:09;;;;;;;23.00;13.43;;;21.90;97.90;;;;;;4936065;28;20442;-68
2023/10/03 01:45:42;;;;;;;22.63;13.90;;;21.90;97.90;;;;;;4928071;29;20500;-69
2023/10/03 01:48:08;;;;;;;22.80;14.57;;;21.90;98.00;;;;;;4905648;29;20478;-68
2023/10/03 01:50:34;;;;;;;22.93;14.07;;;21.90;97.90;;;;;;4918619;28;20479;-69
2023/10/03 01:53:00;;;;;;;22.20;14.50;;;21.80;97.90;;;;;;4925192;29;20445;-68
2023/10/03 01:55:26;;;;;;;24.20;13.87;;;21.80;97.90;;;;;;4938023;28;20487;-69
2023/10/03 01:57:53;;;;;;;24.03;15.00;;;21.90;98.00;;;;;;4926963;28;21023;-69
2023/10/03 02:00:28;;;;;;;26.63;15.33;;;21.90;98.00;;;;;;4930224;29;20469;-69
2023/10/03 02:03:03;;;;;;;20.47;14.10;;;21.80;98.00;;;;;;4908029;29;20480;-69
2023/10/03 02:05:36;;;;;;;23.00;13.60;;;21.80;98.00;;;;;;4954434;28;20546;-68
2023/10/03 02:08:15;;;;;;;21.87;12.97;;;21.80;98.00;;;;;;4942927;28;20441;-69
2023/10/03 02:10:49;;;;;;;22.47;14.70;;;21.80;98.00;;;;;;4927511;29;20817;-69
2023/10/03 02:13:18;;;;;;;21.10;14.00;;;21.80;98.00;;;;;;4933043;28;20603;-71
2023/10/03 02:15:56;;;;;;;22.67;14.20;;;21.80;98.00;;;;;;4943596;29;20435;-71
2023/10/03 02:18:24;;;;;;;21.60;13.97;;;21.90;98.10;;;;;;4940679;28;20483;-71
2023/10/03 02:20:55;;;;;;;22.53;14.73;;;21.80;98.00;;;;;;4927435;29;20521;-71
2023/10/03 02:23:25;;;;;;;21.80;13.23;;;21.80;98.00;;;;;;4933103;28;20500;-71
2023/10/03 02:26:16;;;;;;;19.30;13.53;;;21.80;98.00;;;;;;4908796;28;20445;-71
2023/10/03 02:28:42;;;;;;;19.40;13.13;;;21.70;98.00;;;;;;4963940;28;20489;-71
2023/10/03 02:31:10;;;;;;;20.40;13.40;;;21.70;98.00;;;;;;4931133;28;20808;-71
2023/10/03 02:33:44;;;;;;;23.20;14.43;;;21.70;98.00;;;;;;4939339;29;21365;-71
2023/10/03 02:36:10;;;;;;;21.53;14.27;;;21.80;98.10;;;;;;4919929;29;20570;-71
2023/10/03 02:38:37;;;;;;;27.10;15.47;;;21.80;98.10;;;;;;4934627;28;20483;-71
2023/10/03 02:41:07;;;;;;;21.27;13.60;;;21.70;98.00;;;;;;4911981;28;20441;-71
2023/10/03 02:43:42;;;;;;;25.40;15.30;;;21.70;98.00;;;;;;4926872;29;20460;-71
2023/10/03 02:46:14;;;;;;;23.30;14.50;;;21.80;98.00;;;;;;4915315;28;20433;-71
2023/10/03 02:48:44;;;;;;;22.33;14.47;;;21.80;98.00;;;;;;4953393;28;20477;-71
2023/10/03 02:51:12;;;;;;;24.57;14.63;;;21.80;98.00;;;;;;4930568;28;20448;-71
2023/10/03 02:53:41;;;;;;;21.17;12.83;;;21.80;98.00;;;;;;4922213;28;20510;-71
2023/10/03 02:56:09;;;;;;;20.67;13.70;;;21.70;97.90;;;;;;4943999;29;20433;-71
2023/10/03 02:58:35;;;;;;;21.23;13.53;;;21.70;97.90;;;;;;4926576;29;20477;-71
2023/10/03 03:01:03;;;;;;;21.00;12.90;;;21.80;98.00;;;;;;4936938;28;20446;-71
2023/10/03 03:03:32;;;;;;;21.53;14.30;;;21.80;98.00;;;;;;4945255;28;20429;-71
2023/10/03 03:06:09;;;;;;;20.07;14.00;;;21.80;98.00;;;;;;4927061;29;20484;-71
2023/10/03 03:08:39;;;;;;;22.20;14.00;;;21.70;97.90;;;;;;4894710;29;20914;-71
2023/10/03 03:11:11;;;;;;;22.27;13.13;;;21.70;97.90;;;;;;4926261;29;21215;-71
2023/10/03 03:13:39;;;;;;;21.40;13.50;;;21.70;97.90;;;;;;4917893;28;20750;-71
2023/10/03 03:16:06;;;;;;;21.90;13.60;;;21.70;97.90;;;;;;4946643;28;20467;-71
2023/10/03 03:18:42;;;;;;;22.33;13.17;;;21.70;98.00;;;;;;4947750;28;21004;-71
2023/10/03 03:21:19;;;;;;;20.53;13.30;;;21.80;98.00;;;;;;4934121;29;20477;-71
2023/10/03 03:24:00;;;;;;;22.97;14.60;;;21.80;98.00;;;;;;4892001;29;20467;-71
2023/10/03 03:26:39;;;;;;;22.87;13.57;;;21.70;98.00;;;;;;4957108;28;20506;-71
2023/10/03 03:29:20;;;;;;;22.17;12.67;;;21.70;98.00;;;;;;4934510;29;20508;-71
2023/10/03 03:31:47;;;;;;;21.90;13.43;;;21.60;98.00;;;;;;4943845;28;20998;-71
2023/10/03 03:34:15;;;;;;;21.73;13.73;;;21.70;98.00;;;;;;4962634;28;20453;-71
2023/10/03 03:36:41;;;;;;;21.93;14.60;;;21.60;98.00;;;;;;4946611;28;21156;-71
2023/10/03 03:39:15;;;;;;;23.20;14.13;;;21.70;98.10;;;;;;4946273;28;20472;-71
2023/10/03 03:41:42;;;;;;;22.90;14.53;;;21.70;98.00;;;;;;4929213;29;20193;-71
2023/10/03 03:44:12;;;;;;;20.20;13.50;;;21.70;98.00;;;;;;4913790;28;20454;-72
2023/10/03 03:46:40;;;;;;;21.77;13.30;;;21.60;98.00;;;;;;4929453;29;20461;-71
2023/10/03 03:49:09;;;;;;;21.70;13.63;;;21.70;98.00;;;;;;4934333;29;20437;-71
2023/10/03 03:51:41;;;;;;;20.03;13.53;;;21.60;98.00;;;;;;4933105;28;20425;-71
2023/10/03 03:54:12;;;;;;;21.90;13.47;;;21.60;98.40;;;;;;4962149;28;21078;-71
2023/10/03 03:56:39;;;;;;;24.27;14.27;;;21.60;98.00;;;;;;4928098;29;20446;-71
2023/10/03 03:59:09;;;;;;;20.53;12.57;;;21.60;98.00;;;;;;4928703;28;20477;-71
2023/10/03 04:01:37;;;;;;;25.60;15.43;;;21.70;98.10;;;;;;4954660;28;20423;-71
2023/10/03 04:04:07;;;;;;;24.07;13.53;;;21.60;98.10;;;;;;4937284;29;20516;-71
2023/10/03 04:06:36;;;;;;;22.40;13.63;;;21.60;98.10;;;;;;4887549;29;20891;-71
2023/10/03 04:09:05;;;;;;;24.40;14.10;;;21.60;98.10;;;;;;4922024;29;21097;-71
2023/10/03 04:11:32;;;;;;;20.00;12.37;;;21.60;98.10;;;;;;4906166;29;20439;-71
2023/10/03 04:14:01;;;;;;;20.37;12.40;;;21.60;98.10;;;;;;4922897;29;21001;-71
2023/10/03 04:16:32;;;;;;;23.20;13.70;;;21.70;98.20;;;;;;4905888;29;20447;-71
2023/10/03 04:19:00;;;;;;;22.37;13.07;;;21.60;98.10;;;;;;4930598;29;20474;-71
2023/10/03 04:21:29;;;;;;;21.27;13.10;;;21.60;98.10;;;;;;4922941;29;20848;-71
2023/10/03 04:23:56;;;;;;;19.03;12.03;;;21.60;98.20;;;;;;4905924;29;20472;-71
2023/10/03 04:26:21;;;;;;;20.83;13.50;;;21.60;98.20;;;;;;4906275;29;20199;-71
2023/10/03 04:28:51;;;;;;;20.53;13.13;;;21.70;98.30;;;;;;4930769;29;20434;-71
2023/10/03 04:31:17;;;;;;;22.50;12.90;;;21.60;98.20;;;;;;4890001;29;20895;-71
2023/10/03 04:33:45;;;;;;;21.53;13.10;;;21.60;98.20;;;;;;4923461;29;21423;-70
2023/10/03 04:36:12;;;;;;;21.03;13.50;;;21.60;98.20;;;;;;4921994;29;20446;-71
2023/10/03 04:38:44;;;;;;;22.77;12.87;;;21.60;98.50;;;;;;4906277;29;20522;-71
2023/10/03 04:41:12;;;;;;;22.43;13.67;;;21.60;98.20;;;;;;4905915;29;21148;-71
2023/10/03 04:43:39;;;;;;;18.93;11.90;;;21.60;98.20;;;;;;4897273;29;20454;-71
2023/10/03 04:46:07;;;;;;;20.73;12.47;;;21.60;98.20;;;;;;4922995;29;20436;-70
2023/10/03 04:48:37;;;;;;;19.03;11.90;;;21.60;98.10;;;;;;4929837;29;20570;-70
2023/10/03 04:51:06;;;;;;;17.20;11.50;;;21.60;98.10;;;;;;4937923;29;20573;-71
2023/10/03 04:53:33;;;;;;;21.30;13.13;;;21.50;98.10;;;;;;4905912;29;21336;-71
2023/10/03 04:55:59;;;;;;;18.87;11.90;;;21.50;98.10;;;;;;4928299;29;20440;-71
2023/10/03 04:58:25;;;;;;;19.80;12.10;;;21.50;98.10;;;;;;4918808;29;20217;-70
2023/10/03 05:00:51;;;;;;;20.93;12.00;;;21.60;98.20;;;;;;4915887;29;20439;-70
2023/10/03 05:03:19;;;;;;;20.03;11.30;;;21.50;98.20;;;;;;4922852;29;20215;-71
2023/10/03 05:05:49;;;;;;;18.57;11.80;;;21.50;98.30;;;;;;4895930;29;20455;-70
2023/10/03 05:08:18;;;;;;;16.83;11.50;;;21.60;98.30;;;;;;4902743;29;20481;-70
2023/10/03 05:10:44;;;;;;;19.03;11.77;;;21.50;98.30;;;;;;4905083;29;21052;-71
2023/10/03 05:13:10;;;;;;;16.30;11.50;;;21.60;98.30;;;;;;4922537;29;20953;-70
2023/10/03 05:15:36;;;;;;;18.30;11.80;;;21.60;98.30;;;;;;4898302;29;20529;-71
2023/10/03 05:18:03;;;;;;;17.63;11.60;;;21.50;98.20;;;;;;4904888;29;20223;-71
2023/10/03 05:20:38;;;;;;;25.10;11.83;;;21.50;98.20;;;;;;4891218;29;20439;-70
2023/10/03 05:23:06;;;;;;;14.80;11.17;;;21.50;98.20;;;;;;4901805;29;20462;-71
2023/10/03 05:25:42;;;;;;;19.07;11.87;;;21.70;98.30;;;;;;4970612;23;20951;-69
2023/10/03 05:28:11;;;;;;;18.13;11.47;;;21.50;98.20;;;;;;4911374;29;20429;-69
2023/10/03 05:30:38;;;;;;;17.33;11.30;;;21.50;98.20;;;;;;4950373;23;20574;-70
2023/10/03 05:33:07;;;;;;;18.67;11.70;;;21.50;98.20;;;;;;4914766;29;20960;-70
2023/10/03 05:35:33;;;;;;;15.00;11.00;;;21.60;98.30;;;;;;4937649;29;20448;-70
2023/10/03 05:37:59;;;;;;;16.90;10.97;;;21.50;98.30;;;;;;4906510;29;20481;-69
2023/10/03 05:40:28;;;;;;;14.87;10.47;;;21.50;98.20;;;;;;4904622;29;20438;-70
2023/10/03 05:42:57;;;;;;;17.53;10.50;;;21.50;98.20;;;;;;4943573;28;20448;-70
2023/10/03 05:45:23;;;;;;;16.37;10.70;;;21.50;98.30;;;;;;4929068;29;20515;-70
2023/10/03 05:47:52;;;;;;;17.50;10.90;;;21.50;98.30;;;;;;4945458;29;20433;-70
2023/10/03 05:50:23;;;;;;;15.20;10.03;;;21.50;98.40;;;;;;4928124;29;20528;-70
2023/10/03 05:52:52;;;;;;;19.50;11.43;;;21.50;98.40;;;;;;4928763;29;20593;-69
2023/10/03 05:55:18;;;;;;;14.50;9.60;;;21.50;98.40;;;;;;4925267;29;20933;-70
2023/10/03 05:57:44;;;;;;;17.90;10.47;;;21.50;98.50;;;;;;4942477;29;20469;-69
2023/10/03 06:00:16;;;;;;;16.37;10.07;;;21.50;98.50;;;;;;4945646;29;20464;-70
2023/10/03 06:02:43;;;;;;;16.97;10.13;;;21.50;98.50;;;;;;4948270;28;20468;-70
2023/10/03 06:05:16;;;;;;;16.53;10.60;;;21.50;98.50;;;;;;4904679;29;21089;-70
2023/10/03 06:07:43;;;;;;;16.30;10.70;;;21.50;98.60;;;;;;4924412;29;20446;-69
2023/10/03 06:10:11;;;;;;;14.63;10.23;;;21.70;98.70;;;;;;4924500;29;20430;-70
2023/10/03 06:12:38;;;;;;;15.90;10.07;;;21.60;98.80;;;;;;4933236;29;20429;-70
2023/10/03 06:15:05;;;;;;;14.00;10.60;;;21.50;98.80;;;;;;4924871;29;20474;-70
2023/10/03 06:17:32;;;;;;;14.43;9.67;;;21.50;98.80;;;;;;4939726;29;20422;-70
2023/10/03 06:19:58;;;;;;;17.53;10.80;;;21.50;98.70;;;;;;4940187;29;20447;-70
2023/10/03 06:22:29;;;;;;;17.57;9.90;;;21.50;98.90;;;;;;4908545;29;20448;-69
2023/10/03 06:25:00;;;;;;;15.10;10.03;;;21.50;98.90;;;;;;4917497;29;20971;-70
2023/10/03 06:27:29;;;;;;;16.40;9.27;;;21.50;99.10;;;;;;4914032;29;20609;-70
2023/10/03 06:29:58;;;;;;;17.20;10.97;;;21.60;99.50;;;;;;4934743;28;20441;-70
2023/10/03 06:32:26;;;;;;;12.70;9.00;;;21.50;99.20;;;;;;4945008;29;20436;-70
2023/10/03 06:34:52;;;;;;;16.33;10.63;;;21.60;99.30;;;;;;4928019;29;20888;-70
2023/10/03 06:37:23;;;;;;;13.40;8.53;;;21.60;99.40;;;;;;4943672;29;20825;-69
2023/10/03 06:39:52;;;;;;;12.13;8.80;;;21.50;99.40;;;;;;4935752;29;20437;-71
2023/10/03 06:42:20;;;;;;;12.50;9.17;;;21.50;99.40;;;;;;4940627;29;20429;-70
2023/10/03 06:44:50;;;;;;;17.80;10.37;;;21.50;99.40;;;;;;4933584;29;20525;-69
2023/10/03 06:47:19;;;;;;;14.00;8.40;;;21.50;99.40;;;;;;4944557;29;20450;-70
2023/10/03 06:49:44;;;;;;;13.60;9.77;;;21.50;99.40;;;;;;4944530;29;20453;-70
2023/10/03 06:52:12;;;;;;;12.97;8.97;;;21.50;99.50;;;;;;4937702;29;20514;-69
2023/10/03 06:54:42;;;;;;;13.30;8.13;;;21.60;99.60;;;;;;4944346;28;20946;-69
2023/10/03 06:57:08;;;;;;;11.00;8.00;;;21.60;99.60;;;;;;4926608;29;20425;-69
2023/10/03 06:59:34;;;;;;;9.30;6.90;;;21.60;99.60;;;;;;4918890;29;20474;-70
2023/10/03 07:02:04;;;;;;;9.27;7.60;;;21.50;99.60;;;;;;4925236;29;20438;-70
2023/10/03 07:04:35;;;;;;;13.20;8.30;;;21.50;99.50;;;;;;4939294;28;20496;-70
2023/10/03 07:07:02;;;;;;;11.50;7.30;;;21.60;99.60;;;;;;4918433;29;20454;-69
2023/10/03 07:09:30;;;;;;;11.27;7.47;;;21.50;99.50;;;;;;4910717;29;20900;-69
2023/10/03 07:11:58;;;;;;;12.23;7.57;;;21.50;99.60;;;;;;4918599;29;20465;-69
2023/10/03 07:14:30;;;;;;;15.20;8.33;;;21.50;99.50;;;;;;4939842;29;20458;-69
2023/10/03 07:16:56;;;;;;;13.77;7.90;;;21.50;99.60;;;;;;4919039;29;20456;-70
2023/10/03 07:19:24;;;;;;;11.17;7.30;;;21.50;99.50;;;;;;4910778;29;20975;-70
2023/10/03 07:21:55;;;;;;;10.63;7.80;;;21.50;99.50;;;;;;4926485;29;21265;-69
2023/10/03 07:24:26;;;;;;;9.40;6.60;;;21.50;99.50;;;;;;4932870;29;20592;-70
2023/10/03 07:26:52;;;;;;;9.20;6.67;;;21.50;99.50;;;;;;4911416;29;20427;-70
2023/10/03 07:29:21;;;;;;;10.10;7.93;;;21.50;99.60;;;;;;4923560;29;20439;-70
2023/10/03 07:31:48;;;;;;;9.03;7.70;;;21.50;99.50;;;;;;4927261;29;21091;-70
2023/10/03 07:34:17;;;;;;;10.33;7.57;;;21.40;99.40;;;;;;4912002;29;20459;-70
2023/10/03 07:36:45;;;;;;;7.80;6.60;;;21.40;99.40;;;;;;4943554;29;20435;-70
2023/10/03 07:39:15;;;;;;;9.67;7.10;;;21.50;99.50;;;;;;4951854;28;20916;-69
2023/10/03 07:41:41;;;;;;;9.60;7.33;;;21.50;99.50;;;;;;4935700;28;20507;-70
2023/10/03 07:44:07;;;;;;;8.03;6.80;;;21.50;99.50;;;;;;4944455;28;20732;-70
2023/10/03 07:46:38;;;;;;;8.10;6.30;;;21.50;99.60;;;;;;4933752;28;20256;-70
2023/10/03 07:49:07;;;;;;;10.70;7.30;;;21.50;99.50;;;;;;4952976;28;20788;-70
2023/10/03 07:51:37;;;;;;;9.93;6.30;;;21.50;99.50;;;;;;4926851;29;20451;-71
2023/10/03 07:54:04;;;;;;;9.37;6.80;;;21.50;99.60;;;;;;4943053;28;20555;-70
2023/10/03 07:56:30;;;;;;;8.63;6.30;;;21.50;99.60;;;;;;4958564;28;20462;-71
2023/10/03 07:59:01;;;;;;;11.00;7.13;;;21.50;99.70;;;;;;4937747;28;20486;-70
2023/10/03 08:01:30;;;;;;;6.90;6.03;;;21.50;99.70;;;;;;4940348;28;20536;-70
2023/10/03 08:04:08;;;;;;;7.40;5.93;;;21.50;99.70;;;;;;4946687;28;20794;-71
2023/10/03 08:06:42;;;;;;;10.80;6.40;;;21.50;99.70;;;;;;4932004;28;20475;-70
2023/10/03 08:09:10;;;;;;;9.60;6.60;;;21.50;99.80;;;;;;4946970;28;20451;-71
2023/10/03 08:11:37;;;;;;;8.33;6.00;;;21.50;99.70;;;;;;4931080;28;20480;-70
2023/10/03 08:14:13;;;;;;;11.60;6.30;;;21.50;99.80;;;;;;4921183;29;20456;-71
2023/10/03 08:16:45;;;;;;;6.97;5.90;;;21.50;99.70;;;;;;4934561;29;20485;-70
2023/10/03 08:19:21;;;;;;;6.90;5.90;;;21.50;99.60;;;;;;4923080;28;20564;-70
2023/10/03 08:21:55;;;;;;;6.97;6.27;;;21.50;99.70;;;;;;4954786;28;20505;-70
2023/10/03 08:24:24;;;;;;;8.70;6.47;;;21.40;99.70;;;;;;4923953;29;20458;-70
2023/10/03 08:26:52;;;;;;;8.30;5.80;;;21.50;99.90;;;;;;4943472;28;21043;-70
2023/10/03 08:29:21;;;;;;;7.70;6.27;;;21.40;99.80;;;;;;4923659;28;20962;-70
2023/10/03 08:31:57;;;;;;;6.73;6.00;;;21.50;99.80;;;;;;4945558;28;21387;-70
2023/10/03 08:34:33;;;;;;;6.37;5.30;;;21.50;99.90;;;;;;4944721;28;20643;-71
2023/10/03 08:37:06;;;;;;;12.93;5.83;;;21.40;99.90;;;;;;4914561;28;20448;-70
2023/10/03 08:39:32;;;;;;;8.00;6.27;;;21.40;99.90;;;;;;4947595;28;20472;-70
2023/10/03 08:42:12;;;;;;;7.23;5.97;;;21.40;99.90;;;;;;4961989;28;20433;-74
2023/10/03 08:44:52;;;;;;;6.43;5.80;;;21.50;99.90;;;;;;4930092;28;20453;-74
2023/10/03 08:47:38;;;;;;;7.03;5.20;;;21.50;99.90;;;;;;4924208;29;20846;-74
2023/10/03 08:50:29;;;;;;;8.60;5.60;;;21.40;99.90;;;;;;4918565;29;20480;-75
2023/10/03 08:56:08;;;;;;;6.57;5.90;;;21.50;99.90;;;;;;4904486;29;20442;-75
2023/10/03 08:58:39;;;;;;;8.27;5.70;;;21.40;99.90;;;;;;4939582;28;20480;-75
2023/10/03 09:01:17;;;;;;;6.80;6.07;;;21.40;99.90;;;;;;4924748;29;20936;-74
2023/10/03 09:03:49;;;;;;;8.47;6.20;;;21.40;99.90;;;;;;4921583;29;20902;-75
2023/10/03 09:06:23;;;;;;;6.77;6.10;;;21.50;99.90;;;;;;4931647;28;20446;-75
2023/10/03 09:09:07;;;;;;;6.13;5.53;;;21.50;99.90;;;;;;4927332;28;20433;-74
2023/10/03 09:11:37;;;;;;;6.00;5.40;;;21.40;99.90;;;;;;4942349;29;20462;-74
2023/10/03 09:14:06;;;;;;;7.07;6.00;;;21.40;99.90;;;;;;4948552;28;20752;-75
2023/10/03 09:16:38;;;;;;;6.43;5.83;;;21.40;99.90;;;;;;4925837;29;20442;-75
2023/10/03 09:19:05;;;;;;;7.93;5.90;;;21.40;99.90;;;;;;4932762;29;20478;-75
2023/10/03 09:21:33;;;;;;;6.40;5.50;;;21.40;99.90;;;;;;4909585;29;20451;-74
2023/10/03 09:24:01;;;;;;;7.10;5.60;;;21.40;99.90;;;;;;4950553;28;20456;-76
2023/10/03 09:27:07;;;;;;;6.83;5.77;;;21.50;99.90;;;;;;4946600;28;20443;-76
2023/10/03 09:29:35;;;;;;;10.50;6.40;;;21.50;99.90;;;;;;4935289;28;20545;-74
2023/10/03 09:32:12;;;;;;;6.23;5.03;;;21.40;99.90;;;;;;4943422;28;20746;-74
2023/10/03 09:34:43;;;;;;;7.17;5.73;;;21.50;99.90;;;;;;4943454;29;20939;-75
2023/10/03 09:37:10;;;;;;;5.87;5.37;;;21.50;99.90;;;;;;4940964;29;20458;-76
2023/10/03 09:39:47;;;;;;;8.47;6.20;;;21.50;99.90;;;;;;4924718;29;20994;-76
2023/10/03 09:42:18;;;;;;;6.90;6.00;;;21.50;99.90;;;;;;4942200;29;20429;-75
2023/10/03 09:44:51;;;;;;;7.40;5.90;;;21.50;99.90;;;;;;4925513;28;20440;-76
2023/10/03 09:47:27;;;;;;;7.57;5.63;;;21.50;99.90;;;;;;4923360;29;20472;-75
2023/10/03 09:50:09;;;;;;;6.33;5.73;;;21.50;99.90;;;;;;4933264;28;20473;-75
2023/10/03 09:52:38;;;;;;;7.67;6.40;;;21.50;99.90;;;;;;4929577;29;20418;-76
2023/10/03 09:55:26;;;;;;;6.30;5.70;;;21.50;99.90;;;;;;4932498;28;20875;-76
2023/10/03 09:57:59;;;;;;;6.47;5.73;;;21.50;99.90;;;;;;4922602;28;20477;-75
2023/10/03 10:00:39;;;;;;;11.10;6.03;;;21.50;99.90;;;;;;4927265;28;20452;-74
2023/10/03 10:03:09;;;;;;;8.10;6.53;;;21.50;99.90;;;;;;4958145;28;20425;-75
2023/10/03 10:05:46;;;;;;;7.60;5.20;;;21.50;99.90;;;;;;4940237;28;20533;-74
2023/10/03 10:08:20;;;;;;;5.87;5.27;;;21.50;99.90;;;;;;4941181;29;20433;-74
2023/10/03 10:11:09;;;;;;;6.43;5.30;;;21.60;99.90;;;;;;4924429;29;20502;-75
2023/10/03 10:13:59;;;;;;;6.27;5.67;;;21.50;99.90;;;;;;4924463;28;20942;-76
2023/10/03 10:16:28;;;;;;;6.90;5.30;;;21.50;99.90;;;;;;4926384;29;20450;-76
2023/10/03 10:18:57;;;;;;;9.20;6.00;;;21.50;99.90;;;;;;4932234;28;20652;-75
2023/10/03 10:21:24;;;;;;;7.10;5.40;;;21.50;99.90;;;;;;4908983;29;20818;-75
2023/10/03 10:24:24;;;;;;;7.00;6.33;;;21.50;99.90;;;;;;4924738;28;20513;-76
2023/10/03 10:26:52;;;;;;;6.80;6.07;;;21.50;99.90;;;;;;4945298;28;20446;-76
2023/10/03 10:29:28;;;;;;;5.80;5.20;;;21.40;99.90;;;;;;4953389;28;20557;-75
2023/10/03 10:31:58;;;;;;;8.30;6.03;;;21.50;99.90;;;;;;4949406;28;20485;-75
2023/10/03 10:34:27;;;;;;;9.33;6.83;;;21.40;99.90;;;;;;4947484;28;20441;-75
2023/10/03 10:37:03;;;;;;;7.07;5.80;;;21.50;99.90;;;;;;4980168;28;20467;-75
2023/10/03 10:39:54;;;;;;;6.87;5.60;;;21.40;99.90;;;;;;4947087;28;20809;-76
2023/10/03 10:42:26;;;;;;;12.57;6.57;;;21.50;99.90;;;;;;4954816;28;20512;-75
2023/10/03 10:45:09;;;;;;;10.50;6.17;;;21.30;99.90;;;;;;4983978;28;20444;-75
2023/10/03 10:47:51;;;;;;;6.13;5.43;;;21.40;99.90;;;;;;4965982;28;20424;-76
2023/10/03 10:50:25;;;;;;;6.70;5.97;;;21.40;99.90;;;;;;4947622;28;21243;-76
2023/10/03 10:53:07;;;;;;;11.00;6.47;;;21.30;99.90;;;;;;4946523;28;21010;-76
2023/10/03 10:55:33;;;;;;;8.00;5.90;;;21.30;99.90;;;;;;4950778;28;20474;-76
2023/10/03 10:58:13;;;;;;;6.00;5.40;;;21.20;99.90;;;;;;4930427;28;20496;-76
2023/10/03 11:00:40;;;;;;;5.97;5.37;;;21.30;99.90;;;;;;4961374;28;20453;-76
2023/10/03 11:03:08;;;;;;;11.77;5.57;;;21.30;99.90;;;;;;4971647;28;20848;-75
2023/10/03 11:05:43;;;;;;;7.13;5.87;;;21.30;99.90;;;;;;4946127;28;20912;-76
2023/10/03 11:08:11;;;;;;;5.93;5.00;;;21.30;99.90;;;;;;4933814;28;20448;-76
2023/10/03 11:10:54;;;;;;;5.80;5.13;;;21.30;99.90;;;;;;4949528;28;20455;-75
2023/10/03 11:13:21;;;;;;;6.13;5.43;;;21.40;99.90;;;;;;4978764;28;20433;-75
2023/10/03 11:15:55;;;;;;;5.80;4.63;;;21.30;99.90;;;;;;4930391;28;20868;-76
2023/10/03 11:18:29;;;;;;;5.87;5.10;;;21.30;99.90;;;;;;4971392;28;20508;-75
2023/10/03 11:20:57;;;;;;;4.73;4.30;;;21.30;99.90;;;;;;4938433;28;20436;-74
2023/10/03 11:23:28;;;;;;;5.60;5.10;;;21.30;99.90;;;;;;4963554;28;20536;-75
2023/10/03 11:26:04;;;;;;;5.27;4.83;;;21.20;99.90;;;;;;4936731;28;20968;-74
2023/10/03 11:28:46;;;;;;;8.00;5.80;;;21.30;99.90;;;;;;4967922;28;20428;-75
2023/10/03 11:31:17;;;;;;;4.87;4.37;;;21.30;99.90;;;;;;4948716;28;20499;-75
2023/10/03 11:33:46;;;;;;;5.37;4.97;;;21.30;99.90;;;;;;4964858;28;21270;-75
2023/10/03 11:36:14;;;;;;;4.53;4.13;;;21.30;99.90;;;;;;4952957;28;20431;-73
2023/10/03 11:38:45;;;;;;;4.67;4.10;;;21.30;99.90;;;;;;4929389;28;20519;-75
2023/10/03 11:41:11;;;;;;;4.40;3.90;;;21.30;99.90;;;;;;4929551;28;20437;-75
2023/10/03 11:43:46;;;;;;;4.20;3.77;;;21.30;99.90;;;;;;4970545;28;20695;-75
2023/10/03 11:46:13;;;;;;;5.30;4.80;;;21.30;99.90;;;;;;4945489;28;20659;-75
2023/10/03 11:48:43;;;;;;;4.37;3.97;;;21.30;99.90;;;;;;4929308;28;20452;-75
2023/10/03 11:51:14;;;;;;;3.40;3.20;;;21.30;99.90;;;;;;4968206;28;20464;-75
2023/10/03 11:53:43;;;;;;;4.80;3.63;;;21.30;99.90;;;;;;4944621;28;20870;-74
2023/10/03 11:56:11;;;;;;;4.00;3.60;;;21.30;99.90;;;;;;4962612;28;20869;-75
2023/10/03 11:58:37;;;;;;;4.03;3.60;;;21.20;99.90;;;;;;4962471;28;20480;-74
2023/10/03 12:01:10;;;;;;;3.23;2.97;;;21.30;99.90;;;;;;4929079;28;20453;-75
2023/10/03 12:03:38;;;;;;;3.27;2.97;;;21.30;99.90;;;;;;4936878;28;20441;-74
2023/10/03 12:06:09;;;;;;;3.63;3.30;;;21.30;99.90;;;;;;4968401;28;20425;-76
2023/10/03 12:08:42;;;;;;;3.60;2.70;;;21.30;99.90;;;;;;4961862;28;20445;-73
2023/10/03 12:11:10;;;;;;;4.87;3.27;;;21.30;99.90;;;;;;4962050;28;20437;-76
2023/10/03 12:13:37;;;;;;;3.90;3.60;;;21.30;99.90;;;;;;4944297;28;20428;-74
2023/10/03 12:16:04;;;;;;;3.47;3.10;;;21.30;99.90;;;;;;4961919;28;20527;-75
2023/10/03 12:18:30;;;;;;;2.77;2.30;;;21.30;99.90;;;;;;4962145;28;21186;-75
2023/10/03 12:20:56;;;;;;;4.63;2.73;;;21.30;99.90;;;;;;4928743;28;20439;-75
2023/10/03 12:23:24;;;;;;;3.83;2.67;;;21.00;99.90;;;;;;4945042;28;20452;-75
2023/10/03 12:25:56;;;;;;;3.47;2.90;;;21.20;99.90;;;;;;4962130;28;20699;-75
2023/10/03 12:28:27;;;;;;;2.67;2.47;;;21.30;99.90;;;;;;4961672;28;20467;-76
2023/10/03 12:30:55;;;;;;;3.27;2.70;;;21.30;99.90;;;;;;4912500;29;20999;-74
2023/10/03 12:33:24;;;;;;;3.07;2.77;;;21.30;99.90;;;;;;4942264;29;20775;-76
2023/10/03 12:35:50;;;;;;;3.47;2.80;;;21.30;99.90;;;;;;4893314;29;20828;-76
2023/10/03 12:38:18;;;;;;;2.90;2.70;;;21.30;99.90;;;;;;4925173;29;20484;-75
2023/10/03 12:40:47;;;;;;;2.90;2.70;;;21.20;99.90;;;;;;4925394;29;20885;-76
2023/10/03 12:43:16;;;;;;;2.60;2.40;;;21.20;99.90;;;;;;4912291;28;20477;-76
2023/10/03 12:45:45;;;;;;;2.80;2.60;;;21.20;99.90;;;;;;4926740;28;20477;-74
2023/10/03 12:48:13;;;;;;;2.43;2.23;;;21.30;99.90;;;;;;4933545;29;20476;-74
2023/10/03 12:50:39;;;;;;;2.97;2.77;;;21.20;99.90;;;;;;4925218;28;20508;-75
2023/10/03 12:53:10;;;;;;;2.60;2.37;;;21.30;99.90;;;;;;4942462;29;20476;-76
2023/10/03 12:55:39;;;;;;;2.30;2.10;;;21.20;99.90;;;;;;4942305;29;20454;-76
2023/10/03 12:58:07;;;;;;;2.60;2.00;;;21.20;99.90;;;;;;4925037;29;20473;-74